Flight Track Log - Related Links

Times and Time Zones

All times are in EDT time to prevent confusion due to time zone crossing. See the N27XP flight status page for this flight to view local times or setup timezone preferences in your user account.

Time Position Orientation Groundspeed Altitude Reporting Facility
EDT Latitude Longitude Course Direction KTS MPH feet Rate Location/Type
Mon 10:08:22 AM 33.3950 -79.4519 43° Northeast 293 337 6,700  Level Jacksonville Center
Mon 10:09:22 AM 33.4594 -79.4369 11° North 269 310 10,600 2,150 Climbing Jacksonville Center
Mon 10:10:22 AM 33.5381 -79.4164 12° North 264 304 11,000 150 Climbing Jacksonville Center
Mon 10:11:00 AM 33.5578 -79.0256 40° Northeast  Level FlightAware Approximate
Mon 10:11:22 AM 33.6308 -79.3756 20° North 307 353 10,900  Level Jacksonville Center
Mon 10:12:00 AM 33.6129 -78.9704 40° Northeast  Level FlightAware Approximate
Mon 10:12:22 AM 33.7033 -79.2828 47° Northeast 332 382 10,900  Level Jacksonville Center
Mon 10:13:00 AM 33.6658 -78.9121 43° Northeast  Level FlightAware Approximate
Mon 10:13:22 AM 33.7819 -79.1844 46° Northeast 354 407 10,900  Level Jacksonville Center
Mon 10:14:22 AM 33.8583 -79.0914 45° Northeast 372 428 10,900  Level Jacksonville Center
Mon 10:15:22 AM 33.9392 -79.0028 42° Northeast 377 434 10,900  Level Jacksonville Center
Mon 10:16:22 AM 34.0178 -78.9164 42° Northeast 382 440 10,900  Level Jacksonville Center
Mon 10:17:22 AM 34.0964 -78.8303 42° Northeast 382 440 10,900  Level Jacksonville Center
Mon 10:18:22 AM 34.1769 -78.7411 42° Northeast 382 440 10,900  Level Jacksonville Center
Mon 10:20:42 AM 34.3483 -78.5450 43° Northeast 377 434 10,900  Level Washington Center
Mon 10:21:42 AM 34.3969 -78.4286 63° Northeast 385 443 10,900 -397 Level Washington Center
Mon 10:22:43 AM 34.4475 -78.3169 61° Northeast 378 435 10,100 -893 Descending Washington Center
Mon 10:23:43 AM 34.4936 -78.2100 62° Northeast 363 418 9,100 -1,250 Descending Washington Center
Mon 10:24:43 AM 34.5272 -78.1078 68° East 341 392 7,600 -1,373 Descending Washington Center
Mon 10:25:41 AM 34.5667 -78.0183 62° Northeast 313 360 6,400 -1,261 Descending Washington Center
Mon 10:26:42 AM 34.5994 -77.9358 64° Northeast 289 333 5,100 -1,289 Descending Washington Center
Mon 10:27:42 AM 34.6344 -77.8614 60° Northeast 268 308 3,800 -1,017 Descending Washington Center
Mon 10:28:40 AM 34.6731 -77.7992 53° Northeast 246 283 3,100 -756 Descending Washington Center
Mon 10:29:41 AM 34.7136 -77.7522 44° Northeast 215 247 2,300 -787 Descending Washington Center
Mon 10:31:00 AM 34.7850 -77.6528 54° Northeast  Level FlightAware Approximate

Login

Don't have an account? Register now (free) for customized features, flight alerts, and more!